createdAt,value
2018-09-04T03:33:00.317Z,0.1
2018-09-04T03:35:00.487Z,0.2
2018-09-04T03:36:00.378Z,0.3
2018-09-04T03:38:00.317Z,0.4
2018-09-04T03:39:00.354Z,0.5
2018-09-04T03:41:00.323Z,0.6
2018-09-04T03:42:00.291Z,0.7
2018-09-04T03:43:00.354Z,0.9
2018-09-04T03:44:00.369Z,1.0
2018-09-04T03:45:00.461Z,1.1
2018-09-04T03:46:00.323Z,1.3
2018-09-04T03:47:00.323Z,1.5
2018-09-04T03:48:00.323Z,1.7
2018-09-04T03:49:00.359Z,1.9
2018-09-04T03:50:00.466Z,2.1
2018-09-04T03:51:00.325Z,2.5
2018-09-04T03:52:00.330Z,2.9
2018-09-04T03:53:00.325Z,3.3
2018-09-04T03:54:00.360Z,3.9
2018-09-04T03:55:00.474Z,4.5
2018-09-04T03:56:00.327Z,5.2
2018-09-04T03:57:00.328Z,5.9
2018-09-04T03:58:00.330Z,6.8
2018-09-04T03:59:00.362Z,7.9
2018-09-04T04:00:00.535Z,9.1
2018-09-04T04:01:00.326Z,10.7
2018-09-04T04:02:00.327Z,12.5
2018-09-04T04:03:00.329Z,14.7
2018-09-04T04:04:00.352Z,17.1
2018-09-04T04:05:00.532Z,20.0
2018-09-04T04:06:00.329Z,23.5
2018-09-04T04:07:00.326Z,27.4
2018-09-04T04:08:00.366Z,31.7
2018-09-04T04:09:00.331Z,36.7
2018-09-04T04:10:00.529Z,42.4
2018-09-04T04:11:00.326Z,48.9
2018-09-04T04:12:00.369Z,56.8
2018-09-04T04:13:00.360Z,66.1
2018-09-04T04:14:00.333Z,77.1
2018-09-04T04:15:00.474Z,89.4
2018-09-04T04:16:00.329Z,102.7
2018-09-04T04:17:00.371Z,117.7
2018-09-04T04:18:00.327Z,134.8
2018-09-04T04:19:00.334Z,155.0
2018-09-04T04:20:00.471Z,177.9
2018-09-04T04:21:00.330Z,204.1
2018-09-04T04:22:00.379Z,232.6
2018-09-04T04:23:00.331Z,262.5
2018-09-04T04:24:00.445Z,295.7
2018-09-04T04:25:00.515Z,336.1
2018-09-04T04:26:00.335Z,379.6
2018-09-04T04:27:00.364Z,420.9
2018-09-04T04:28:00.330Z,463.5
2018-09-04T04:29:00.330Z,513.1
2018-09-04T04:30:00.474Z,564.4
2018-09-04T04:31:00.334Z,619.3
2018-09-04T04:32:00.367Z,683.8
2018-09-04T04:33:00.353Z,756.9
2018-09-04T04:34:00.330Z,846.1
2018-09-04T04:35:00.555Z,946.1
2018-09-04T04:36:00.335Z,1052.5
2018-09-04T04:37:00.386Z,1162.9
2018-09-04T04:38:00.305Z,1274.4
2018-09-04T04:39:00.303Z,1389.2
2018-09-04T04:40:00.529Z,1513.5
2018-09-04T04:41:00.333Z,1637.4
2018-09-04T04:42:00.371Z,1783.9
2018-09-04T04:43:00.335Z,1938.2
2018-09-04T04:44:00.334Z,2070.3
2018-09-04T04:45:00.483Z,2223.7
2018-09-04T04:46:00.338Z,2430.7
2018-09-04T04:47:00.370Z,2659.9
2018-09-04T04:48:00.409Z,2892.5
2018-09-04T04:49:00.341Z,3127.6
2018-09-04T04:50:00.543Z,3372.1
2018-09-04T04:51:00.337Z,3628.8
2018-09-04T04:52:00.378Z,3900.3
2018-09-04T04:53:00.314Z,4189.3
2018-09-04T04:54:00.339Z,4507.8
2018-09-04T04:55:00.544Z,4825.7
2018-09-04T04:56:00.344Z,5156.2
2018-09-04T04:57:00.388Z,5484.8
2018-09-04T04:58:00.341Z,5795.7
2018-09-04T04:59:00.313Z,6180.9
2018-09-04T05:00:00.546Z,6583.1
2018-09-04T05:01:00.342Z,6900.5
2018-09-04T05:02:00.381Z,7267.9
2018-09-04T05:03:00.347Z,7712.1
2018-09-04T05:04:00.346Z,8166.9
2018-09-04T05:05:00.486Z,8624.5
2018-09-04T05:06:00.346Z,9076.7
2018-09-04T05:07:00.393Z,9562.1
2018-09-04T05:08:00.345Z,10091.0
2018-09-04T05:09:00.348Z,10609.9
2018-09-04T05:10:00.582Z,11084.7
2018-09-04T05:11:00.408Z,11512.5
2018-09-04T05:12:00.383Z,11855.7
2018-09-04T05:13:00.348Z,12177.5
2018-09-04T05:14:00.350Z,12451.4
2018-09-04T05:15:00.494Z,12712.1
2018-09-04T05:16:00.348Z,12991.8
2018-09-04T05:17:00.383Z,13209.6
2018-09-04T05:18:00.347Z,13445.2
2018-09-04T05:19:00.371Z,13700.0
2018-09-04T05:20:00.488Z,14000.3
2018-09-04T05:21:00.353Z,14284.1
2018-09-04T05:22:00.381Z,14534.7
2018-09-04T05:23:00.348Z,14699.8
2018-09-04T05:24:00.346Z,14792.1
2018-09-04T05:25:03.231Z,14938.2
2018-09-04T05:26:00.353Z,15161.7
2018-09-04T05:27:00.386Z,15523.2
2018-09-04T05:28:00.357Z,16023.1
2018-09-04T05:29:00.352Z,16573.1
2018-09-04T05:30:00.559Z,17053.7
2018-09-04T05:31:00.354Z,17543.3
2018-09-04T05:32:00.388Z,18137.2
2018-09-04T05:33:00.352Z,18799.8
2018-09-04T05:34:00.354Z,19410.7
2018-09-04T05:35:00.501Z,19938.9
2018-09-04T05:36:00.358Z,20540.7
2018-09-04T05:37:00.404Z,21183.1
2018-09-04T05:38:00.372Z,21977.5
2018-09-04T05:39:00.361Z,22852.4
2018-09-04T05:40:00.499Z,23686.1
2018-09-04T05:41:00.361Z,24518.1
2018-09-04T05:42:00.395Z,25382.1
2018-09-04T05:43:00.365Z,25880.1
2018-09-04T05:44:00.391Z,26292.6
2018-09-04T05:45:00.507Z,26900.5
2018-09-04T05:46:00.361Z,27505.5
2018-09-04T05:47:00.402Z,28030.7
2018-09-04T05:48:00.364Z,28256.1
2018-09-04T05:49:00.359Z,28221.8
2018-09-04T05:50:00.517Z,28232.8
2018-09-04T05:51:00.363Z,28340.5
2018-09-04T05:52:00.397Z,28071.9
2018-09-04T05:53:00.367Z,27777.7
2018-09-04T05:54:00.368Z,27540.3
2018-09-04T05:55:00.599Z,27354.2
2018-09-04T05:56:00.369Z,27366.8
2018-09-04T05:57:00.416Z,27483.0
2018-09-04T05:58:00.364Z,27679.8
2018-09-04T05:59:00.366Z,27777.9
2018-09-04T06:00:00.595Z,27738.6
2018-09-04T06:01:00.361Z,28205.9
2018-09-04T06:02:00.391Z,28462.5
2018-09-04T06:03:00.395Z,28582.1
2018-09-04T06:04:00.334Z,28732.8
2018-09-04T06:05:00.512Z,28756.3
2018-09-04T06:06:00.368Z,28745.9
2018-09-04T06:07:00.373Z,29029.6
2018-09-04T06:08:00.395Z,29463.7
2018-09-04T06:09:00.364Z,29904.1
2018-09-04T06:10:00.573Z,30340.8
2018-09-04T06:11:00.363Z,31077.9
2018-09-04T06:12:00.394Z,32351.0
2018-09-04T06:13:00.396Z,33718.6
2018-09-04T06:14:00.370Z,35134.7
2018-09-04T06:15:00.509Z,36749.3
2018-09-04T06:16:00.373Z,38500.3
2018-09-04T06:17:00.368Z,40085.3
2018-09-04T06:18:00.403Z,41430.2
2018-09-04T06:19:00.376Z,42796.3
2018-09-04T06:20:00.536Z,44650.3
2018-09-04T06:21:00.370Z,46363.5
2018-09-04T06:22:00.370Z,48124.7
2018-09-04T06:23:00.404Z,49669.1
2018-09-04T06:24:00.372Z,51403.3
2018-09-04T06:25:00.536Z,53386.2
2018-09-04T06:26:00.371Z,55016.9
2018-09-04T06:27:00.377Z,55760.6
2018-09-04T06:28:00.401Z,56390.5
2018-09-04T06:29:00.375Z,57006.5
2018-09-04T06:30:00.513Z,57672.2
2018-09-04T06:31:00.341Z,57854.1
2018-09-04T06:32:00.373Z,58366.7
2018-09-04T06:33:00.416Z,59177.3
2018-09-04T06:34:00.395Z,60072.0
2018-09-04T06:35:00.509Z,60482.5
2018-09-04T06:36:00.376Z,61061.5
2018-09-04T06:37:00.373Z,61860.9
2018-09-04T06:38:00.414Z,62622.1
2018-09-04T06:39:00.374Z,63095.7
2018-09-04T06:40:00.520Z,63287.7
2018-09-04T06:42:00.374Z,63429.9
2018-09-04T06:43:00.409Z,63766.7
2018-09-04T06:44:00.382Z,64190.0
2018-09-04T06:45:00.514Z,64348.2
2018-09-04T06:48:00.414Z,64549.1
2018-09-04T06:49:00.375Z,64873.1
2018-09-04T06:50:00.588Z,65286.5
2018-09-04T06:51:00.378Z,65344.2
2018-09-04T07:00:01.547Z,65344.2
2018-09-04T07:05:00.621Z,65325.7
2018-09-04T07:06:00.395Z,65516.5
2018-09-04T07:15:00.560Z,65516.5
2018-09-04T07:20:00.687Z,65535.0
2018-09-04T07:30:00.638Z,65535.0
2018-09-04T07:45:00.599Z,65535.0
2018-09-04T08:00:00.672Z,65535.0
2018-09-04T08:15:00.616Z,65535.0
2018-09-04T08:30:00.699Z,65535.0
2018-09-04T08:45:00.629Z,65535.0
2018-09-04T09:00:02.612Z,65535.0
2018-09-04T09:15:00.590Z,65535.0
2018-09-04T09:30:00.657Z,65535.0
2018-09-04T09:45:00.632Z,65535.0
2018-09-04T10:00:00.718Z,65535.0
2018-09-04T10:15:00.659Z,65535.0
2018-09-04T10:30:00.617Z,65535.0
2018-09-04T10:45:00.659Z,65535.0
2018-09-04T11:00:00.655Z,65535.0
2018-09-04T11:15:00.611Z,65535.0
2018-09-04T11:30:01.721Z,65535.0
2018-09-04T11:45:00.608Z,65535.0
2018-09-04T12:00:00.621Z,65535.0
2018-09-04T12:15:02.677Z,65535.0
2018-09-04T12:30:00.788Z,65535.0
2018-09-04T12:45:00.638Z,65535.0
2018-09-04T13:00:02.693Z,65535.0
2018-09-04T13:15:00.793Z,65535.0
2018-09-04T13:30:00.668Z,65535.0
2018-09-04T13:45:00.674Z,65535.0
2018-09-04T14:00:00.739Z,65535.0
2018-09-04T14:15:02.774Z,65535.0
2018-09-04T14:30:16.243Z,65535.0
2018-09-04T14:45:00.744Z,65535.0
2018-09-04T15:00:00.737Z,65535.0
2018-09-04T15:15:00.671Z,65535.0
2018-09-04T15:30:00.702Z,65535.0
2018-09-04T15:45:00.740Z,65535.0
2018-09-04T15:48:00.549Z,65300.7
2018-09-04T15:49:00.541Z,65080.6
2018-09-04T15:50:00.748Z,64866.5
2018-09-04T15:51:00.571Z,64552.7
2018-09-04T15:52:00.544Z,64085.5
2018-09-04T15:53:00.554Z,63583.4
2018-09-04T15:54:00.541Z,62989.7
2018-09-04T15:55:00.684Z,62334.3
2018-09-04T15:56:00.567Z,61611.1
2018-09-04T15:57:00.603Z,60818.9
2018-09-04T15:58:00.578Z,59999.7
2018-09-04T15:59:00.547Z,59151.9
2018-09-04T16:00:00.683Z,58270.1
2018-09-04T16:01:00.540Z,57340.3
2018-09-04T16:02:00.511Z,56364.3
2018-09-04T16:03:00.579Z,55579.5
2018-09-04T16:04:00.541Z,54743.1
2018-09-04T16:05:00.651Z,53874.9
2018-09-04T16:06:00.545Z,53080.3
2018-09-04T16:07:00.545Z,52411.4
2018-09-04T16:08:00.577Z,51758.7
2018-09-04T16:09:00.547Z,51179.8
2018-09-04T16:10:00.866Z,50638.6
2018-09-04T16:11:00.541Z,50136.3
2018-09-04T16:12:00.547Z,49678.7
2018-09-04T16:13:00.586Z,49212.2
2018-09-04T16:14:00.545Z,48739.5
2018-09-04T16:15:00.682Z,48284.9
2018-09-04T16:16:00.515Z,47857.6
2018-09-04T16:17:00.545Z,47448.4
2018-09-04T16:18:00.579Z,47046.5
2018-09-04T16:19:00.546Z,46641.5
2018-09-04T16:20:00.755Z,46225.9
2018-09-04T16:21:00.545Z,45800.9
2018-09-04T16:22:00.565Z,45373.2
2018-09-04T16:23:00.578Z,44934.6
2018-09-04T16:24:00.515Z,44487.9
2018-09-04T16:25:00.711Z,44043.1
2018-09-04T16:26:00.549Z,43603.2
2018-09-04T16:27:00.550Z,43161.9
2018-09-04T16:28:00.588Z,42735.1
2018-09-04T16:29:00.545Z,42319.9
2018-09-04T16:30:00.830Z,41895.5
2018-09-04T16:31:00.548Z,41455.1
2018-09-04T16:32:00.548Z,41016.1
2018-09-04T16:33:00.577Z,40588.7
2018-09-04T16:34:00.550Z,40175.0
2018-09-04T16:35:00.847Z,39767.3
2018-09-04T16:36:00.595Z,39366.6
2018-09-04T16:37:00.553Z,38967.5
2018-09-04T16:38:00.625Z,38571.4
2018-09-04T16:39:00.553Z,38177.7
2018-09-04T16:40:00.693Z,37786.1
2018-09-04T16:41:00.562Z,37397.6
2018-09-04T16:42:00.550Z,37009.4
2018-09-04T16:43:00.580Z,36617.7
2018-09-04T16:44:00.553Z,36224.1
2018-09-04T16:45:00.753Z,35827.0
2018-09-04T16:46:00.553Z,35438.1
2018-09-04T16:47:00.554Z,35051.2
2018-09-04T16:48:00.581Z,34663.3
2018-09-04T16:49:00.554Z,34277.1
2018-09-04T16:50:00.696Z,33895.5
2018-09-04T16:51:00.553Z,33515.8
2018-09-04T16:52:00.557Z,33139.3
2018-09-04T16:53:00.583Z,32763.1
2018-09-04T16:54:00.553Z,32383.5
2018-09-04T16:55:00.703Z,31998.3
2018-09-04T16:56:00.639Z,31610.5
2018-09-04T16:57:00.559Z,31224.7
2018-09-04T16:58:00.580Z,30839.8
2018-09-04T16:59:00.674Z,30454.6
2018-09-04T17:00:00.697Z,30070.5
2018-09-04T17:01:00.555Z,29686.3
2018-09-04T17:02:00.555Z,29297.8
2018-09-04T17:03:00.583Z,28906.5
2018-09-04T17:04:00.525Z,28513.1
2018-09-04T17:05:00.715Z,28118.1
2018-09-04T17:06:00.561Z,27721.1
2018-09-04T17:07:00.606Z,27322.5
2018-09-04T17:08:00.561Z,26923.7
2018-09-04T17:09:00.568Z,26524.1
2018-09-04T17:10:00.707Z,26122.1
2018-09-04T17:11:00.561Z,25714.9
2018-09-04T17:12:00.596Z,25303.2
2018-09-04T17:13:00.613Z,24886.1
2018-09-04T17:14:00.568Z,24466.1
2018-09-04T17:15:00.718Z,24045.4
2018-09-04T17:16:00.560Z,23625.8
2018-09-04T17:17:00.640Z,23207.5
2018-09-04T17:18:00.564Z,22789.6
2018-09-04T17:19:00.562Z,22371.7
2018-09-04T17:20:00.766Z,21954.1
2018-09-04T17:21:00.561Z,21536.8
2018-09-04T17:22:00.594Z,21119.1
2018-09-04T17:23:00.561Z,20699.9
2018-09-04T17:24:00.565Z,20280.5
2018-09-04T17:25:03.034Z,19861.3
2018-09-04T17:26:00.598Z,19442.4
2018-09-04T17:27:00.616Z,19023.8
2018-09-04T17:28:00.565Z,18606.1
2018-09-04T17:29:00.569Z,18189.3
2018-09-04T17:30:00.776Z,17772.7
2018-09-04T17:31:00.567Z,17356.3
2018-09-04T17:32:00.748Z,16940.1
2018-09-04T17:33:00.568Z,16524.3
2018-09-04T17:34:00.536Z,16108.1
2018-09-04T17:35:00.707Z,15692.1
2018-09-04T17:36:00.570Z,15277.2
2018-09-04T17:37:00.595Z,14862.7
2018-09-04T17:38:00.571Z,14449.3
2018-09-04T17:39:00.574Z,14037.3
2018-09-04T17:40:00.710Z,13626.9
2018-09-04T17:41:00.573Z,13218.8
2018-09-04T17:42:00.596Z,12813.1
2018-09-04T17:43:00.540Z,12409.9
2018-09-04T17:44:00.577Z,12007.9
2018-09-04T17:45:00.713Z,11609.3
2018-09-04T17:46:00.573Z,11213.5
2018-09-04T17:47:00.598Z,10819.5
2018-09-04T17:48:00.600Z,10426.7
2018-09-04T17:49:00.571Z,10036.5
2018-09-04T17:50:00.778Z,9649.1
2018-09-04T17:51:00.573Z,9264.6
2018-09-04T17:52:00.610Z,8883.1
2018-09-04T17:53:00.578Z,8504.9
2018-09-04T17:54:00.571Z,8129.5
2018-09-04T17:55:00.839Z,7757.7
2018-09-04T17:56:00.576Z,7390.1
2018-09-04T17:57:00.603Z,7027.3
2018-09-04T17:58:00.572Z,6670.7
2018-09-04T17:59:00.549Z,6321.5
2018-09-04T18:00:00.718Z,5979.1
2018-09-04T18:01:00.566Z,5644.3
2018-09-04T18:02:00.606Z,5318.7
2018-09-04T18:03:00.573Z,5003.6
2018-09-04T18:04:00.574Z,4698.5
2018-09-04T18:05:00.711Z,4403.8
2018-09-04T18:06:00.574Z,4119.8
2018-09-04T18:07:00.626Z,3847.3
2018-09-04T18:08:00.574Z,3586.3
2018-09-04T18:09:00.573Z,3337.3
2018-09-04T18:10:00.718Z,3100.5
2018-09-04T18:11:00.576Z,2875.1
2018-09-04T18:12:00.652Z,2661.0
2018-09-04T18:13:00.578Z,2457.7
2018-09-04T18:14:00.547Z,2265.0
2018-09-04T18:15:00.716Z,2082.6
2018-09-04T18:16:00.581Z,1910.3
2018-09-04T18:17:00.616Z,1747.9
2018-09-04T18:18:00.584Z,1595.2
2018-09-04T18:19:00.583Z,1452.0
2018-09-04T18:20:00.724Z,1318.0
2018-09-04T18:21:00.582Z,1192.9
2018-09-04T18:22:00.635Z,1076.5
2018-09-04T18:23:00.581Z,968.7
2018-09-04T18:24:00.586Z,869.3
2018-09-04T18:25:00.767Z,777.8
2018-09-04T18:26:00.581Z,694.0
2018-09-04T18:27:00.653Z,617.3
2018-09-04T18:28:00.585Z,547.5
2018-09-04T18:29:00.583Z,484.0
2018-09-04T18:30:00.724Z,426.7
2018-09-04T18:31:00.591Z,374.9
2018-09-04T18:32:00.614Z,328.3
2018-09-04T18:33:00.587Z,286.7
2018-09-04T18:34:00.589Z,249.6
2018-09-04T18:35:00.738Z,216.7
2018-09-04T18:36:00.635Z,187.5
2018-09-04T18:37:00.612Z,161.9
2018-09-04T18:38:00.588Z,139.3
2018-09-04T18:39:00.589Z,119.6
2018-09-04T18:40:00.796Z,102.3
2018-09-04T18:41:00.597Z,87.4
2018-09-04T18:42:00.630Z,74.5
2018-09-04T18:43:00.585Z,63.3
2018-09-04T18:44:00.587Z,53.8
2018-09-04T18:45:00.729Z,45.6
2018-09-04T18:46:00.592Z,38.6
2018-09-04T18:47:00.613Z,32.7
2018-09-04T18:48:00.587Z,27.7
2018-09-04T18:49:00.647Z,23.4
2018-09-04T18:50:00.734Z,19.8
2018-09-04T18:51:00.605Z,16.7
2018-09-04T18:52:00.591Z,14.1
2018-09-04T18:53:00.589Z,11.9
2018-09-04T18:54:00.621Z,10.1
2018-09-04T18:55:00.742Z,8.6
2018-09-04T18:56:00.593Z,7.3
2018-09-04T18:57:00.596Z,6.2
2018-09-04T18:58:00.632Z,5.3
2018-09-04T18:59:00.600Z,4.5
2018-09-04T19:00:00.736Z,3.8
2018-09-04T19:01:00.598Z,3.3
2018-09-04T19:02:00.598Z,2.8
2018-09-04T19:03:00.626Z,2.4
2018-09-04T19:04:00.598Z,2.1
2018-09-04T19:05:00.739Z,1.7
2018-09-04T19:06:00.601Z,1.5
2018-09-04T19:07:00.597Z,1.3
2018-09-04T19:08:00.628Z,1.1
2018-09-04T19:09:00.595Z,0.9
2018-09-04T19:10:00.736Z,0.7
2018-09-04T19:11:00.598Z,0.6
2018-09-04T19:12:00.599Z,0.5
2018-09-04T19:13:00.631Z,0.4
2018-09-04T19:14:00.599Z,0.3
2018-09-04T19:15:00.741Z,0.3
2018-09-04T19:16:00.601Z,0.2
2018-09-04T19:17:00.595Z,0.1
